sensor_id;sensor_type;location;lat;lon;timestamp;P1;durP1;ratioP1;P2;durP2;ratioP2
56321;SDS011;42227;6.376;-10.782;2023-09-07T00:00:41;31.38;;;17.02;;
56321;SDS011;42227;6.376;-10.782;2023-09-07T00:03:11;34.67;;;19.80;;
56321;SDS011;42227;6.376;-10.782;2023-09-07T00:08:49;28.70;;;19.50;;
56321;SDS011;42227;6.376;-10.782;2023-09-07T00:14:21;33.15;;;19.75;;
56321;SDS011;42227;6.376;-10.782;2023-09-07T00:16:49;23.17;;;14.55;;
56321;SDS011;42227;6.376;-10.782;2023-09-07T00:23:14;19.83;;;12.20;;
56321;SDS011;42227;6.376;-10.782;2023-09-07T00:25:43;20.90;;;13.23;;
56321;SDS011;42227;6.376;-10.782;2023-09-07T00:28:11;25.35;;;16.05;;
56321;SDS011;42227;6.376;-10.782;2023-09-07T00:30:40;25.35;;;16.45;;
56321;SDS011;42227;6.376;-10.782;2023-09-07T00:33:09;23.08;;;15.18;;
56321;SDS011;42227;6.376;-10.782;2023-09-07T00:35:38;21.52;;;15.80;;
56321;SDS011;42227;6.376;-10.782;2023-09-07T00:38:11;24.45;;;15.20;;
56321;SDS011;42227;6.376;-10.782;2023-09-07T00:40:43;15.48;;;11.98;;
56321;SDS011;42227;6.376;-10.782;2023-09-07T00:43:12;16.65;;;12.40;;
56321;SDS011;42227;6.376;-10.782;2023-09-07T00:45:41;17.88;;;11.50;;
56321;SDS011;42227;6.376;-10.782;2023-09-07T00:48:11;19.23;;;11.10;;
56321;SDS011;42227;6.376;-10.782;2023-09-07T00:50:42;16.80;;;11.32;;
56321;SDS011;42227;6.376;-10.782;2023-09-07T00:53:13;14.70;;;10.68;;
56321;SDS011;42227;6.376;-10.782;2023-09-07T00:55:44;22.27;;;12.10;;
56321;SDS011;42227;6.376;-10.782;2023-09-07T00:58:13;17.80;;;11.70;;
56321;SDS011;42227;6.376;-10.782;2023-09-07T01:00:41;16.67;;;11.00;;
56321;SDS011;42227;6.376;-10.782;2023-09-07T01:03:11;22.00;;;12.05;;
56321;SDS011;42227;6.376;-10.782;2023-09-07T01:05:45;19.65;;;10.63;;
56321;SDS011;42227;6.376;-10.782;2023-09-07T01:08:45;15.45;;;11.05;;
56321;SDS011;42227;6.376;-10.782;2023-09-07T01:11:18;18.00;;;9.70;;
56321;SDS011;42227;6.376;-10.782;2023-09-07T01:13:50;13.50;;;9.43;;
56321;SDS011;42227;6.376;-10.782;2023-09-07T01:16:25;21.92;;;9.00;;
56321;SDS011;42227;6.376;-10.782;2023-09-07T01:18:56;15.88;;;8.80;;
56321;SDS011;42227;6.376;-10.782;2023-09-07T01:21:25;16.05;;;10.25;;
56321;SDS011;42227;6.376;-10.782;2023-09-07T01:23:57;13.80;;;9.00;;
56321;SDS011;42227;6.376;-10.782;2023-09-07T01:26:26;11.27;;;7.53;;
56321;SDS011;42227;6.376;-10.782;2023-09-07T01:28:55;9.98;;;7.82;;
56321;SDS011;42227;6.376;-10.782;2023-09-07T01:31:23;16.67;;;8.52;;
56321;SDS011;42227;6.376;-10.782;2023-09-07T01:33:54;18.45;;;7.65;;
56321;SDS011;42227;6.376;-10.782;2023-09-07T01:36:24;14.80;;;8.45;;
56321;SDS011;42227;6.376;-10.782;2023-09-07T01:38:53;15.13;;;9.18;;
56321;SDS011;42227;6.376;-10.782;2023-09-07T01:41:22;15.25;;;10.45;;
56321;SDS011;42227;6.376;-10.782;2023-09-07T01:43:50;13.57;;;10.00;;
56321;SDS011;42227;6.376;-10.782;2023-09-07T01:46:22;16.63;;;11.65;;
56321;SDS011;42227;6.376;-10.782;2023-09-07T01:48:51;16.92;;;10.23;;
56321;SDS011;42227;6.376;-10.782;2023-09-07T01:51:22;15.70;;;11.07;;
56321;SDS011;42227;6.376;-10.782;2023-09-07T01:53:50;16.67;;;9.23;;
56321;SDS011;42227;6.376;-10.782;2023-09-07T01:56:19;12.55;;;9.18;;
56321;SDS011;42227;6.376;-10.782;2023-09-07T01:58:47;14.95;;;9.45;;
56321;SDS011;42227;6.376;-10.782;2023-09-07T02:01:23;16.73;;;10.73;;
56321;SDS011;42227;6.376;-10.782;2023-09-07T02:03:53;16.30;;;9.75;;
56321;SDS011;42227;6.376;-10.782;2023-09-07T02:06:23;23.92;;;10.55;;
56321;SDS011;42227;6.376;-10.782;2023-09-07T02:08:53;21.73;;;10.95;;
56321;SDS011;42227;6.376;-10.782;2023-09-07T02:11:22;16.02;;;10.55;;
56321;SDS011;42227;6.376;-10.782;2023-09-07T02:13:51;17.88;;;10.30;;
56321;SDS011;42227;6.376;-10.782;2023-09-07T02:16:23;22.33;;;10.73;;
56321;SDS011;42227;6.376;-10.782;2023-09-07T02:18:59;12.80;;;8.40;;
56321;SDS011;42227;6.376;-10.782;2023-09-07T02:21:32;16.73;;;9.68;;
56321;SDS011;42227;6.376;-10.782;2023-09-07T02:24:00;17.05;;;10.63;;
56321;SDS011;42227;6.376;-10.782;2023-09-07T02:26:29;10.85;;;8.57;;
56321;SDS011;42227;6.376;-10.782;2023-09-07T02:28:57;8.48;;;7.45;;
56321;SDS011;42227;6.376;-10.782;2023-09-07T02:31:26;13.30;;;8.13;;
56321;SDS011;42227;6.376;-10.782;2023-09-07T02:33:57;16.67;;;8.93;;
56321;SDS011;42227;6.376;-10.782;2023-09-07T02:36:26;25.42;;;17.88;;
56321;SDS011;42227;6.376;-10.782;2023-09-07T02:38:54;28.80;;;17.55;;
56321;SDS011;42227;6.376;-10.782;2023-09-07T02:41:23;32.38;;;18.15;;
56321;SDS011;42227;6.376;-10.782;2023-09-07T02:43:52;28.30;;;18.08;;
56321;SDS011;42227;6.376;-10.782;2023-09-07T02:46:24;27.02;;;19.33;;
56321;SDS011;42227;6.376;-10.782;2023-09-07T02:48:53;28.65;;;18.17;;
56321;SDS011;42227;6.376;-10.782;2023-09-07T02:51:25;30.45;;;20.92;;
56321;SDS011;42227;6.376;-10.782;2023-09-07T02:53:56;32.05;;;19.98;;
56321;SDS011;42227;6.376;-10.782;2023-09-07T02:56:25;34.17;;;18.70;;
56321;SDS011;42227;6.376;-10.782;2023-09-07T02:58:53;30.67;;;20.70;;
56321;SDS011;42227;6.376;-10.782;2023-09-07T03:01:22;31.77;;;20.45;;
56321;SDS011;42227;6.376;-10.782;2023-09-07T03:03:51;25.45;;;20.60;;
56321;SDS011;42227;6.376;-10.782;2023-09-07T03:06:23;25.30;;;18.23;;
56321;SDS011;42227;6.376;-10.782;2023-09-07T03:08:53;24.75;;;19.95;;
56321;SDS011;42227;6.376;-10.782;2023-09-07T03:11:21;21.60;;;18.45;;
56321;SDS011;42227;6.376;-10.782;2023-09-07T03:13:50;29.00;;;18.58;;
56321;SDS011;42227;6.376;-10.782;2023-09-07T03:16:20;27.45;;;21.00;;
56321;SDS011;42227;6.376;-10.782;2023-09-07T03:18:49;25.83;;;17.08;;
56321;SDS011;42227;6.376;-10.782;2023-09-07T03:21:17;28.55;;;19.40;;
56321;SDS011;42227;6.376;-10.782;2023-09-07T03:23:46;22.55;;;19.35;;
56321;SDS011;42227;6.376;-10.782;2023-09-07T03:26:18;30.75;;;22.10;;
56321;SDS011;42227;6.376;-10.782;2023-09-07T03:28:46;24.83;;;20.70;;
56321;SDS011;42227;6.376;-10.782;2023-09-07T03:31:15;29.85;;;22.83;;
56321;SDS011;42227;6.376;-10.782;2023-09-07T03:33:48;25.42;;;22.45;;
56321;SDS011;42227;6.376;-10.782;2023-09-07T03:36:17;25.65;;;20.13;;
56321;SDS011;42227;6.376;-10.782;2023-09-07T03:38:46;28.75;;;22.92;;
56321;SDS011;42227;6.376;-10.782;2023-09-07T03:41:14;32.75;;;21.63;;
56321;SDS011;42227;6.376;-10.782;2023-09-07T03:43:43;28.00;;;20.83;;
56321;SDS011;42227;6.376;-10.782;2023-09-07T03:46:12;25.60;;;20.70;;
56321;SDS011;42227;6.376;-10.782;2023-09-07T03:48:43;34.40;;;22.98;;
56321;SDS011;42227;6.376;-10.782;2023-09-07T03:51:11;26.92;;;23.40;;
56321;SDS011;42227;6.376;-10.782;2023-09-07T03:53:40;27.60;;;21.25;;
56321;SDS011;42227;6.376;-10.782;2023-09-07T03:56:09;29.48;;;24.73;;
56321;SDS011;42227;6.376;-10.782;2023-09-07T03:58:38;29.05;;;20.35;;
56321;SDS011;42227;6.376;-10.782;2023-09-07T04:01:08;26.67;;;23.23;;
56321;SDS011;42227;6.376;-10.782;2023-09-07T04:03:37;32.00;;;23.25;;
56321;SDS011;42227;6.376;-10.782;2023-09-07T04:06:06;31.45;;;22.10;;
56321;SDS011;42227;6.376;-10.782;2023-09-07T04:08:35;25.10;;;20.85;;
56321;SDS011;42227;6.376;-10.782;2023-09-07T04:11:07;33.97;;;22.15;;
56321;SDS011;42227;6.376;-10.782;2023-09-07T04:13:43;35.22;;;25.48;;
56321;SDS011;42227;6.376;-10.782;2023-09-07T04:16:13;28.98;;;20.48;;
56321;SDS011;42227;6.376;-10.782;2023-09-07T04:18:41;30.20;;;21.30;;
56321;SDS011;42227;6.376;-10.782;2023-09-07T04:21:10;31.25;;;22.98;;
56321;SDS011;42227;6.376;-10.782;2023-09-07T04:23:39;27.38;;;21.05;;
56321;SDS011;42227;6.376;-10.782;2023-09-07T04:26:11;31.83;;;20.92;;
56321;SDS011;42227;6.376;-10.782;2023-09-07T04:28:40;49.47;;;20.20;;
56321;SDS011;42227;6.376;-10.782;2023-09-07T04:31:08;24.17;;;19.40;;
56321;SDS011;42227;6.376;-10.782;2023-09-07T04:33:39;33.15;;;20.73;;
56321;SDS011;42227;6.376;-10.782;2023-09-07T04:36:08;28.33;;;20.58;;
56321;SDS011;42227;6.376;-10.782;2023-09-07T04:38:39;30.50;;;17.88;;
56321;SDS011;42227;6.376;-10.782;2023-09-07T04:41:13;27.25;;;20.77;;
56321;SDS011;42227;6.376;-10.782;2023-09-07T04:43:43;22.73;;;19.10;;
56321;SDS011;42227;6.376;-10.782;2023-09-07T04:46:13;28.58;;;21.02;;
56321;SDS011;42227;6.376;-10.782;2023-09-07T04:48:42;26.13;;;20.88;;
56321;SDS011;42227;6.376;-10.782;2023-09-07T04:51:11;21.38;;;19.17;;
56321;SDS011;42227;6.376;-10.782;2023-09-07T04:53:41;30.20;;;20.73;;
56321;SDS011;42227;6.376;-10.782;2023-09-07T04:56:10;24.08;;;20.25;;
56321;SDS011;42227;6.376;-10.782;2023-09-07T04:58:39;30.15;;;21.98;;
56321;SDS011;42227;6.376;-10.782;2023-09-07T05:01:10;27.20;;;20.58;;
56321;SDS011;42227;6.376;-10.782;2023-09-07T05:03:42;27.42;;;20.85;;
56321;SDS011;42227;6.376;-10.782;2023-09-07T05:06:13;28.67;;;20.83;;
56321;SDS011;42227;6.376;-10.782;2023-09-07T05:08:42;25.00;;;18.77;;
56321;SDS011;42227;6.376;-10.782;2023-09-07T05:11:11;22.42;;;18.95;;
56321;SDS011;42227;6.376;-10.782;2023-09-07T05:13:39;26.13;;;20.88;;
56321;SDS011;42227;6.376;-10.782;2023-09-07T05:16:09;24.73;;;19.58;;
56321;SDS011;42227;6.376;-10.782;2023-09-07T05:18:40;28.23;;;19.58;;
56321;SDS011;42227;6.376;-10.782;2023-09-07T05:21:15;33.88;;;20.25;;
56321;SDS011;42227;6.376;-10.782;2023-09-07T05:23:46;30.35;;;19.80;;
56321;SDS011;42227;6.376;-10.782;2023-09-07T05:26:21;29.65;;;20.70;;
56321;SDS011;42227;6.376;-10.782;2023-09-07T05:28:54;28.20;;;20.27;;
56321;SDS011;42227;6.376;-10.782;2023-09-07T05:31:26;23.80;;;20.25;;
56321;SDS011;42227;6.376;-10.782;2023-09-07T05:33:55;24.77;;;19.58;;
56321;SDS011;42227;6.376;-10.782;2023-09-07T05:36:23;27.50;;;21.48;;
56321;SDS011;42227;6.376;-10.782;2023-09-07T05:38:52;27.15;;;19.92;;
56321;SDS011;42227;6.376;-10.782;2023-09-07T05:41:21;30.27;;;20.50;;
56321;SDS011;42227;6.376;-10.782;2023-09-07T05:43:54;30.70;;;22.70;;
56321;SDS011;42227;6.376;-10.782;2023-09-07T05:46:25;25.83;;;18.30;;
56321;SDS011;42227;6.376;-10.782;2023-09-07T05:48:54;27.33;;;21.85;;
56321;SDS011;42227;6.376;-10.782;2023-09-07T05:51:25;25.05;;;19.27;;
56321;SDS011;42227;6.376;-10.782;2023-09-07T05:53:54;25.48;;;19.25;;
56321;SDS011;42227;6.376;-10.782;2023-09-07T05:56:23;20.98;;;17.48;;
56321;SDS011;42227;6.376;-10.782;2023-09-07T05:58:52;28.63;;;19.50;;
56321;SDS011;42227;6.376;-10.782;2023-09-07T06:01:20;21.95;;;19.58;;
56321;SDS011;42227;6.376;-10.782;2023-09-07T06:03:53;25.30;;;22.58;;
56321;SDS011;42227;6.376;-10.782;2023-09-07T06:06:22;44.50;;;23.20;;
56321;SDS011;42227;6.376;-10.782;2023-09-07T06:08:51;22.48;;;17.75;;
56321;SDS011;42227;6.376;-10.782;2023-09-07T06:11:24;26.20;;;20.10;;
56321;SDS011;42227;6.376;-10.782;2023-09-07T06:13:55;31.33;;;20.38;;
56321;SDS011;42227;6.376;-10.782;2023-09-07T06:16:26;25.23;;;21.05;;
56321;SDS011;42227;6.376;-10.782;2023-09-07T06:18:58;36.45;;;21.13;;
56321;SDS011;42227;6.376;-10.782;2023-09-07T06:21:27;25.63;;;18.58;;
56321;SDS011;42227;6.376;-10.782;2023-09-07T06:23:56;33.17;;;19.45;;
56321;SDS011;42227;6.376;-10.782;2023-09-07T06:26:24;36.33;;;21.48;;
56321;SDS011;42227;6.376;-10.782;2023-09-07T06:28:53;27.98;;;19.85;;
56321;SDS011;42227;6.376;-10.782;2023-09-07T06:31:26;21.60;;;18.45;;
56321;SDS011;42227;6.376;-10.782;2023-09-07T06:33:54;27.17;;;20.92;;
56321;SDS011;42227;6.376;-10.782;2023-09-07T06:36:24;25.63;;;20.20;;
56321;SDS011;42227;6.376;-10.782;2023-09-07T06:39:13;25.05;;;19.00;;
56321;SDS011;42227;6.376;-10.782;2023-09-07T06:41:45;24.95;;;17.55;;
56321;SDS011;42227;6.376;-10.782;2023-09-07T06:44:16;31.60;;;19.35;;
56321;SDS011;42227;6.376;-10.782;2023-09-07T06:46:46;45.10;;;32.33;;
56321;SDS011;42227;6.376;-10.782;2023-09-07T06:49:14;49.60;;;31.67;;
56321;SDS011;42227;6.376;-10.782;2023-09-07T06:51:44;39.83;;;27.17;;
56321;SDS011;42227;6.376;-10.782;2023-09-07T06:56:44;26.10;;;22.60;;
56321;SDS011;42227;6.376;-10.782;2023-09-07T06:59:13;29.55;;;23.08;;
56321;SDS011;42227;6.376;-10.782;2023-09-07T07:01:42;42.38;;;31.73;;
56321;SDS011;42227;6.376;-10.782;2023-09-07T07:04:11;40.17;;;28.83;;
56321;SDS011;42227;6.376;-10.782;2023-09-07T07:06:39;29.08;;;17.92;;
56321;SDS011;42227;6.376;-10.782;2023-09-07T07:09:11;35.78;;;19.50;;
56321;SDS011;42227;6.376;-10.782;2023-09-07T07:11:40;27.08;;;18.38;;
56321;SDS011;42227;6.376;-10.782;2023-09-07T07:14:09;17.67;;;15.07;;
56321;SDS011;42227;6.376;-10.782;2023-09-07T07:16:37;24.95;;;17.88;;
56321;SDS011;42227;6.376;-10.782;2023-09-07T07:19:06;23.70;;;18.70;;
56321;SDS011;42227;6.376;-10.782;2023-09-07T07:21:50;20.13;;;14.38;;
56321;SDS011;42227;6.376;-10.782;2023-09-07T07:24:19;19.33;;;15.48;;
56321;SDS011;42227;6.376;-10.782;2023-09-07T07:26:48;19.15;;;16.40;;
56321;SDS011;42227;6.376;-10.782;2023-09-07T07:30:41;21.10;;;15.13;;
56321;SDS011;42227;6.376;-10.782;2023-09-07T07:33:13;22.73;;;14.32;;
56321;SDS011;42227;6.376;-10.782;2023-09-07T07:35:45;18.90;;;14.93;;
56321;SDS011;42227;6.376;-10.782;2023-09-07T07:38:14;15.98;;;11.95;;
56321;SDS011;42227;6.376;-10.782;2023-09-07T07:40:47;16.90;;;14.30;;
56321;SDS011;42227;6.376;-10.782;2023-09-07T07:43:16;22.05;;;14.07;;
56321;SDS011;42227;6.376;-10.782;2023-09-07T07:45:45;22.65;;;14.57;;
56321;SDS011;42227;6.376;-10.782;2023-09-07T07:48:14;21.42;;;15.90;;
56321;SDS011;42227;6.376;-10.782;2023-09-07T07:50:43;19.60;;;15.93;;
56321;SDS011;42227;6.376;-10.782;2023-09-07T07:53:14;22.05;;;16.30;;
56321;SDS011;42227;6.376;-10.782;2023-09-07T07:55:45;19.83;;;16.20;;
56321;SDS011;42227;6.376;-10.782;2023-09-07T07:58:17;30.00;;;19.17;;
56321;SDS011;42227;6.376;-10.782;2023-09-07T08:00:46;24.73;;;19.65;;
56321;SDS011;42227;6.376;-10.782;2023-09-07T08:03:24;30.70;;;21.52;;
56321;SDS011;42227;6.376;-10.782;2023-09-07T08:05:53;27.75;;;21.27;;
56321;SDS011;42227;6.376;-10.782;2023-09-07T08:08:22;34.00;;;20.63;;
56321;SDS011;42227;6.376;-10.782;2023-09-07T08:10:51;23.13;;;17.02;;
56321;SDS011;42227;6.376;-10.782;2023-09-07T08:13:20;23.92;;;18.48;;
56321;SDS011;42227;6.376;-10.782;2023-09-07T08:15:49;26.08;;;17.77;;
56321;SDS011;42227;6.376;-10.782;2023-09-07T08:18:18;20.27;;;16.85;;
56321;SDS011;42227;6.376;-10.782;2023-09-07T08:20:47;21.85;;;17.35;;
56321;SDS011;42227;6.376;-10.782;2023-09-07T08:23:19;28.23;;;18.40;;
56321;SDS011;42227;6.376;-10.782;2023-09-07T08:25:48;18.63;;;14.48;;
56321;SDS011;42227;6.376;-10.782;2023-09-07T08:28:23;16.33;;;14.50;;
56321;SDS011;42227;6.376;-10.782;2023-09-07T08:30:52;20.05;;;12.30;;
56321;SDS011;42227;6.376;-10.782;2023-09-07T08:33:21;19.40;;;13.65;;
56321;SDS011;42227;6.376;-10.782;2023-09-07T08:35:53;17.08;;;13.73;;
56321;SDS011;42227;6.376;-10.782;2023-09-07T08:38:23;21.55;;;15.38;;
56321;SDS011;42227;6.376;-10.782;2023-09-07T08:40:53;16.42;;;12.65;;
56321;SDS011;42227;6.376;-10.782;2023-09-07T08:43:22;22.48;;;14.13;;
56321;SDS011;42227;6.376;-10.782;2023-09-07T08:45:55;25.25;;;16.48;;
56321;SDS011;42227;6.376;-10.782;2023-09-07T08:48:41;18.70;;;15.02;;
56321;SDS011;42227;6.376;-10.782;2023-09-07T08:51:10;17.60;;;14.23;;
56321;SDS011;42227;6.376;-10.782;2023-09-07T08:53:41;18.33;;;14.10;;
56321;SDS011;42227;6.376;-10.782;2023-09-07T08:56:09;18.38;;;13.43;;
56321;SDS011;42227;6.376;-10.782;2023-09-07T08:58:41;17.60;;;14.60;;
56321;SDS011;42227;6.376;-10.782;2023-09-07T09:01:12;15.38;;;11.38;;
56321;SDS011;42227;6.376;-10.782;2023-09-07T09:03:41;24.70;;;16.52;;
56321;SDS011;42227;6.376;-10.782;2023-09-07T09:06:11;21.73;;;12.45;;
56321;SDS011;42227;6.376;-10.782;2023-09-07T09:08:44;18.67;;;11.07;;
56321;SDS011;42227;6.376;-10.782;2023-09-07T09:11:14;22.58;;;13.40;;
56321;SDS011;42227;6.376;-10.782;2023-09-07T09:13:44;14.43;;;8.93;;
56321;SDS011;42227;6.376;-10.782;2023-09-07T09:16:23;13.43;;;9.18;;
56321;SDS011;42227;6.376;-10.782;2023-09-07T09:18:55;12.25;;;8.57;;
56321;SDS011;42227;6.376;-10.782;2023-09-07T09:21:25;18.30;;;9.35;;
56321;SDS011;42227;6.376;-10.782;2023-09-07T09:23:55;12.93;;;9.18;;
56321;SDS011;42227;6.376;-10.782;2023-09-07T09:26:25;15.52;;;11.20;;
56321;SDS011;42227;6.376;-10.782;2023-09-07T09:28:57;10.88;;;8.77;;
56321;SDS011;42227;6.376;-10.782;2023-09-07T09:31:28;12.32;;;8.95;;
56321;SDS011;42227;6.376;-10.782;2023-09-07T09:33:58;17.17;;;10.82;;
56321;SDS011;42227;6.376;-10.782;2023-09-07T09:36:32;14.40;;;9.40;;
56321;SDS011;42227;6.376;-10.782;2023-09-07T09:39:02;14.52;;;10.73;;
56321;SDS011;42227;6.376;-10.782;2023-09-07T09:41:31;13.40;;;9.57;;
56321;SDS011;42227;6.376;-10.782;2023-09-07T09:44:02;8.40;;;7.32;;
56321;SDS011;42227;6.376;-10.782;2023-09-07T09:46:31;11.18;;;8.85;;
56321;SDS011;42227;6.376;-10.782;2023-09-07T09:49:01;16.10;;;8.55;;
56321;SDS011;42227;6.376;-10.782;2023-09-07T09:51:33;15.00;;;9.30;;
56321;SDS011;42227;6.376;-10.782;2023-09-07T09:54:02;11.80;;;8.50;;
56321;SDS011;42227;6.376;-10.782;2023-09-07T09:56:48;10.48;;;9.18;;
56321;SDS011;42227;6.376;-10.782;2023-09-07T09:59:17;10.82;;;8.73;;
56321;SDS011;42227;6.376;-10.782;2023-09-07T10:01:47;9.50;;;6.78;;
56321;SDS011;42227;6.376;-10.782;2023-09-07T10:04:17;16.92;;;8.35;;
56321;SDS011;42227;6.376;-10.782;2023-09-07T10:06:54;16.03;;;8.57;;
56321;SDS011;42227;6.376;-10.782;2023-09-07T10:09:34;8.15;;;7.32;;
56321;SDS011;42227;6.376;-10.782;2023-09-07T10:12:03;28.02;;;11.57;;
56321;SDS011;42227;6.376;-10.782;2023-09-07T10:14:42;15.50;;;9.85;;
56321;SDS011;42227;6.376;-10.782;2023-09-07T10:17:10;12.98;;;7.93;;
56321;SDS011;42227;6.376;-10.782;2023-09-07T10:20:01;12.82;;;7.50;;
56321;SDS011;42227;6.376;-10.782;2023-09-07T10:22:30;12.95;;;8.30;;
56321;SDS011;42227;6.376;-10.782;2023-09-07T10:25:00;13.80;;;8.07;;
56321;SDS011;42227;6.376;-10.782;2023-09-07T10:27:36;14.60;;;8.25;;
56321;SDS011;42227;6.376;-10.782;2023-09-07T10:30:27;9.65;;;6.60;;
56321;SDS011;42227;6.376;-10.782;2023-09-07T10:32:57;13.13;;;7.35;;
56321;SDS011;42227;6.376;-10.782;2023-09-07T10:35:27;8.52;;;7.15;;
56321;SDS011;42227;6.376;-10.782;2023-09-07T10:37:59;13.05;;;8.85;;
56321;SDS011;42227;6.376;-10.782;2023-09-07T10:40:47;10.40;;;6.80;;
56321;SDS011;42227;6.376;-10.782;2023-09-07T10:46:56;9.63;;;6.75;;
56321;SDS011;42227;6.376;-10.782;2023-09-07T10:49:46;11.40;;;6.13;;
56321;SDS011;42227;6.376;-10.782;2023-09-07T10:52:15;12.38;;;8.48;;
56321;SDS011;42227;6.376;-10.782;2023-09-07T10:55:04;13.50;;;9.05;;
56321;SDS011;42227;6.376;-10.782;2023-09-07T10:57:56;16.60;;;6.78;;
56321;SDS011;42227;6.376;-10.782;2023-09-07T11:00:34;9.30;;;6.55;;
56321;SDS011;42227;6.376;-10.782;2023-09-07T11:03:32;13.88;;;5.85;;
56321;SDS011;42227;6.376;-10.782;2023-09-07T11:06:09;9.23;;;7.32;;
56321;SDS011;42227;6.376;-10.782;2023-09-07T11:08:41;10.27;;;7.82;;
56321;SDS011;42227;6.376;-10.782;2023-09-07T11:11:09;15.57;;;10.57;;
56321;SDS011;42227;6.376;-10.782;2023-09-07T11:13:38;11.38;;;8.25;;
56321;SDS011;42227;6.376;-10.782;2023-09-07T11:16:09;10.27;;;7.30;;
56321;SDS011;42227;6.376;-10.782;2023-09-07T11:18:38;7.90;;;5.65;;
56321;SDS011;42227;6.376;-10.782;2023-09-07T11:21:09;8.18;;;5.32;;
56321;SDS011;42227;6.376;-10.782;2023-09-07T11:23:39;8.02;;;6.47;;
56321;SDS011;42227;6.376;-10.782;2023-09-07T11:26:08;8.07;;;5.70;;
56321;SDS011;42227;6.376;-10.782;2023-09-07T11:28:39;7.25;;;5.65;;
56321;SDS011;42227;6.376;-10.782;2023-09-07T11:31:08;12.05;;;8.32;;
56321;SDS011;42227;6.376;-10.782;2023-09-07T11:33:36;14.52;;;6.47;;
56321;SDS011;42227;6.376;-10.782;2023-09-07T11:36:05;9.70;;;6.97;;
56321;SDS011;42227;6.376;-10.782;2023-09-07T11:38:37;20.80;;;6.47;;
56321;SDS011;42227;6.376;-10.782;2023-09-07T11:43:34;10.48;;;6.40;;
56321;SDS011;42227;6.376;-10.782;2023-09-07T11:46:03;10.07;;;6.20;;
56321;SDS011;42227;6.376;-10.782;2023-09-07T11:48:35;15.93;;;8.30;;
56321;SDS011;42227;6.376;-10.782;2023-09-07T11:51:03;14.60;;;8.82;;
56321;SDS011;42227;6.376;-10.782;2023-09-07T11:53:32;10.02;;;8.57;;
56321;SDS011;42227;6.376;-10.782;2023-09-07T11:56:01;11.95;;;7.68;;
56321;SDS011;42227;6.376;-10.782;2023-09-07T11:58:33;12.90;;;6.53;;
56321;SDS011;42227;6.376;-10.782;2023-09-07T12:01:02;11.93;;;6.38;;
56321;SDS011;42227;6.376;-10.782;2023-09-07T12:03:31;7.45;;;5.20;;
56321;SDS011;42227;6.376;-10.782;2023-09-07T12:06:00;16.13;;;6.40;;
56321;SDS011;42227;6.376;-10.782;2023-09-07T12:08:29;11.95;;;5.90;;
56321;SDS011;42227;6.376;-10.782;2023-09-07T12:10:58;8.07;;;5.97;;
56321;SDS011;42227;6.376;-10.782;2023-09-07T12:13:27;17.42;;;8.95;;
56321;SDS011;42227;6.376;-10.782;2023-09-07T12:15:57;9.75;;;6.15;;
56321;SDS011;42227;6.376;-10.782;2023-09-07T12:18:26;8.63;;;7.03;;
56321;SDS011;42227;6.376;-10.782;2023-09-07T12:20:57;16.77;;;7.80;;
56321;SDS011;42227;6.376;-10.782;2023-09-07T12:23:26;12.27;;;8.13;;
56321;SDS011;42227;6.376;-10.782;2023-09-07T12:25:55;10.18;;;5.75;;
56321;SDS011;42227;6.376;-10.782;2023-09-07T12:28:25;10.45;;;6.03;;
56321;SDS011;42227;6.376;-10.782;2023-09-07T12:30:55;7.22;;;5.22;;
56321;SDS011;42227;6.376;-10.782;2023-09-07T12:33:24;13.55;;;6.30;;
56321;SDS011;42227;6.376;-10.782;2023-09-07T12:35:53;7.13;;;5.35;;
56321;SDS011;42227;6.376;-10.782;2023-09-07T12:38:21;9.63;;;5.35;;
56321;SDS011;42227;6.376;-10.782;2023-09-07T12:40:50;7.88;;;5.82;;
56321;SDS011;42227;6.376;-10.782;2023-09-07T12:43:19;9.13;;;5.90;;
56321;SDS011;42227;6.376;-10.782;2023-09-07T12:45:49;8.75;;;6.97;;
56321;SDS011;42227;6.376;-10.782;2023-09-07T12:48:19;16.27;;;14.60;;
56321;SDS011;42227;6.376;-10.782;2023-09-07T12:50:47;13.52;;;11.98;;
56321;SDS011;42227;6.376;-10.782;2023-09-07T12:53:16;8.25;;;5.45;;
56321;SDS011;42227;6.376;-10.782;2023-09-07T12:55:45;11.00;;;8.60;;
56321;SDS011;42227;6.376;-10.782;2023-09-07T12:58:14;8.52;;;5.40;;
56321;SDS011;42227;6.376;-10.782;2023-09-07T13:00:42;7.75;;;5.80;;
56321;SDS011;42227;6.376;-10.782;2023-09-07T13:03:11;11.38;;;8.23;;
56321;SDS011;42227;6.376;-10.782;2023-09-07T13:05:40;6.95;;;5.95;;
56321;SDS011;42227;6.376;-10.782;2023-09-07T13:08:10;8.45;;;6.22;;
56321;SDS011;42227;6.376;-10.782;2023-09-07T13:10:39;7.70;;;6.75;;
56321;SDS011;42227;6.376;-10.782;2023-09-07T13:13:09;8.93;;;6.38;;
56321;SDS011;42227;6.376;-10.782;2023-09-07T13:15:38;6.28;;;4.40;;
56321;SDS011;42227;6.376;-10.782;2023-09-07T13:18:06;9.30;;;4.82;;
56321;SDS011;42227;6.376;-10.782;2023-09-07T13:20:35;8.30;;;5.10;;
56321;SDS011;42227;6.376;-10.782;2023-09-07T13:23:07;15.32;;;7.45;;
56321;SDS011;42227;6.376;-10.782;2023-09-07T13:25:36;5.80;;;4.72;;
56321;SDS011;42227;6.376;-10.782;2023-09-07T13:28:05;8.30;;;6.07;;
56321;SDS011;42227;6.376;-10.782;2023-09-07T13:30:34;11.63;;;6.25;;
56321;SDS011;42227;6.376;-10.782;2023-09-07T13:33:03;10.57;;;6.47;;
56321;SDS011;42227;6.376;-10.782;2023-09-07T13:35:33;8.00;;;5.32;;
56321;SDS011;42227;6.376;-10.782;2023-09-07T13:38:02;11.88;;;8.40;;
56321;SDS011;42227;6.376;-10.782;2023-09-07T13:40:31;9.63;;;6.85;;
56321;SDS011;42227;6.376;-10.782;2023-09-07T13:43:00;10.07;;;7.18;;
56321;SDS011;42227;6.376;-10.782;2023-09-07T13:45:29;11.82;;;7.57;;
56321;SDS011;42227;6.376;-10.782;2023-09-07T13:47:57;11.48;;;7.65;;
56321;SDS011;42227;6.376;-10.782;2023-09-07T13:50:26;15.73;;;9.63;;
56321;SDS011;42227;6.376;-10.782;2023-09-07T13:52:55;10.52;;;7.43;;
56321;SDS011;42227;6.376;-10.782;2023-09-07T13:55:24;9.82;;;8.77;;
56321;SDS011;42227;6.376;-10.782;2023-09-07T13:57:56;55.28;;;48.20;;
56321;SDS011;42227;6.376;-10.782;2023-09-07T14:00:32;28.45;;;24.52;;
56321;SDS011;42227;6.376;-10.782;2023-09-07T14:03:01;18.05;;;13.02;;
56321;SDS011;42227;6.376;-10.782;2023-09-07T14:05:30;9.93;;;4.63;;
56321;SDS011;42227;6.376;-10.782;2023-09-07T14:07:59;13.73;;;6.47;;
56321;SDS011;42227;6.376;-10.782;2023-09-07T14:10:28;7.93;;;5.85;;
56321;SDS011;42227;6.376;-10.782;2023-09-07T14:12:56;9.82;;;8.65;;
56321;SDS011;42227;6.376;-10.782;2023-09-07T14:15:26;11.05;;;6.35;;
56321;SDS011;42227;6.376;-10.782;2023-09-07T14:17:55;23.70;;;15.10;;
56321;SDS011;42227;6.376;-10.782;2023-09-07T14:20:24;16.58;;;11.75;;
56321;SDS011;42227;6.376;-10.782;2023-09-07T14:22:53;13.50;;;7.75;;
56321;SDS011;42227;6.376;-10.782;2023-09-07T14:25:22;20.13;;;10.07;;
56321;SDS011;42227;6.376;-10.782;2023-09-07T14:27:51;10.75;;;7.45;;
56321;SDS011;42227;6.376;-10.782;2023-09-07T14:30:21;9.07;;;6.45;;
56321;SDS011;42227;6.376;-10.782;2023-09-07T14:32:49;11.57;;;7.35;;
56321;SDS011;42227;6.376;-10.782;2023-09-07T14:35:18;13.02;;;9.43;;
56321;SDS011;42227;6.376;-10.782;2023-09-07T14:37:47;9.20;;;6.55;;
56321;SDS011;42227;6.376;-10.782;2023-09-07T14:40:16;6.28;;;5.68;;
56321;SDS011;42227;6.376;-10.782;2023-09-07T14:42:44;9.40;;;6.68;;
56321;SDS011;42227;6.376;-10.782;2023-09-07T14:45:13;13.52;;;7.07;;
56321;SDS011;42227;6.376;-10.782;2023-09-07T14:47:42;10.70;;;7.28;;
56321;SDS011;42227;6.376;-10.782;2023-09-07T14:50:11;11.40;;;7.63;;
56321;SDS011;42227;6.376;-10.782;2023-09-07T14:52:40;9.55;;;8.05;;
56321;SDS011;42227;6.376;-10.782;2023-09-07T14:55:09;11.10;;;8.27;;